Terminal Aerodrome Forecast
Issued by NWS Tuscon, AZ

Home | Current Version | Previous Version | Text Only | Print | Product List | Glossary On
Versions: 1 2 3 4 5 6 7 8 9 10 11 12 13 14 15 16 17
646
FTUS45 KTWC 271120
TAFTUS
TAF
KTUS 271120Z 2712/2812 13006KT P6SM VCSH SCT100 BKN150
     FM271400 15005KT P6SM SCT100 BKN150
     FM271800 32008KT P6SM FEW080 SCT200
     FM272300 32009G15KT P6SM VCSH SCT090 BKN150
     FM280400 24006KT P6SM SCT090 BKN150=

USA.gov is the U.S. government's official web portal to all federal, state and local government web resources and services.